Flight Track Log - Related Links

Times and Time Zones

All times are in EDT time to prevent confusion due to time zone crossing. See the EJA922 flight status page for this flight to view local times or setup timezone preferences in your user account.

Time Position Orientation Groundspeed Altitude Reporting Facility
EDT Latitude Longitude Course Direction KTS MPH feet Rate Location/Type
Sun 08:49:50 PM 32.7411 -117.2222 64° Northeast 200 230 1,200  Level Los Angeles Center
Sun 08:50:52 PM 32.7553 -117.2922 284° West 216 249 4,800 3,484 Climbing Los Angeles Center
Sun 08:51:54 PM 32.7000 -117.3303 210° Southwest 251 289 8,400 2,952 Climbing Los Angeles Center
Sun 08:52:56 PM 32.6561 -117.2603 127° Southeast 260 299 10,900 1,839 Climbing Los Angeles Center
Sun 08:53:58 PM 32.6394 -117.1642 102° East 295 339 12,200 1,839 Climbing Los Angeles Center
Sun 08:55:00 PM 33.0150 -116.4876 64° Northeast  Level Estimated
Sun 08:55:00 PM 32.6231 -117.0550 100° East 328 377 14,700  Level Los Angeles Center
Sun 08:56:02 PM 32.6522 -116.9739 67° East 343 395 16,300 2,081 Climbing Los Angeles Center
Sun 08:57:04 PM 32.7639 -116.9225 21° North 371 427 19,000 2,032 Climbing Los Angeles Center
Sun 08:58:06 PM 32.8664 -116.8975 12° North 372 428 20,500 1,548 Climbing Los Angeles Center
Sun 08:59:08 PM 32.9983 -116.8639 12° North 389 448 22,200 1,500 Climbing Los Angeles Center
Sun 09:00:10 PM 33.1106 -116.8353 12° North 400 460 23,600 1,355 Climbing Los Angeles Center
Sun 09:01:12 PM 33.2219 -116.7933 17° North 415 478 25,000 1,258 Climbing Los Angeles Center
Sun 09:02:14 PM 33.3300 -116.7269 27° Northeast 430 495 26,200 1,113 Climbing Los Angeles Center
Sun 09:03:16 PM 33.4397 -116.6614 26° Northeast 438 504 27,300 1,113 Climbing Los Angeles Center
Sun 09:04:18 PM 33.5483 -116.5842 31° Northeast 449 517 28,500 1,122 Climbing Los Angeles Center
Sun 09:05:19 PM 33.6547 -116.4969 34° Northeast 459 528 29,600 1,024 Climbing Los Angeles Center
Sun 09:06:21 PM 33.7572 -116.3983 39° Northeast 469 540 30,600 1,210 Climbing Los Angeles Center
Sun 09:07:23 PM 33.8678 -116.2619 46° Northeast 476 548 32,100 1,210 Climbing Los Angeles Center
Sun 09:08:25 PM 33.9244 -116.1206 64° Northeast 473 544 33,100 919 Climbing Los Angeles Center
Sun 09:09:27 PM 33.9689 -115.9700 70° East 476 548 34,000 919 Climbing Los Angeles Center
Sun 09:10:29 PM 34.0136 -115.8153 71° East 485 558 35,000 919 Climbing Los Angeles Center
Sun 09:11:31 PM 34.0286 -115.6542 84° East 483 556 35,900 919 Climbing Los Angeles Center
Sun 09:12:33 PM 34.0356 -115.4917 87° East 484 557 36,900 1,073 Climbing Los Angeles Center
Sun 09:13:34 PM 34.0431 -115.3283 87° East 488 562 38,100 1,366 Climbing Los Angeles Center
Sun 09:14:36 PM 34.0506 -115.1333 87° East 485 558 39,700 1,355 Climbing Los Angeles Center
Sun 09:15:38 PM 34.0567 -114.9717 87° East 484 557 40,900 629 Climbing Los Angeles Center
Sun 09:16:40 PM 34.0756 -114.8075 82° East 509 586 41,000 48 Climbing Los Angeles Center
Sun 09:17:42 PM 34.1236 -114.6408 71° East 523 602 41,000  Level Los Angeles Center
Sun 09:18:44 PM 34.1750 -114.4686 70° East 543 625 41,000  Level Los Angeles Center
Sun 09:19:45 PM 34.2156 -114.3294 71° East 549 632 41,000  Level Los Angeles Center
Sun 09:20:48 PM 34.2867 -114.0875 70° East 547 629 41,000  Level Los Angeles Center
Sun 09:21:50 PM 34.3369 -113.9125 71° East 548 631 41,000  Level Los Angeles Center
Sun 09:22:52 PM 34.3903 -113.7322 70° East 556 640 41,000  Level Los Angeles Center
Sun 09:23:53 PM 34.4294 -113.5933 71° East 553 636 41,000  Level Los Angeles Center
Sun 09:25:05 PM 34.4983 -113.3511 71° East 548 631 41,000  Level Albuquerque Center
Sun 09:26:06 PM 34.5472 -113.1747 71° East 554 638 41,000  Level Albuquerque Center
Sun 09:27:08 PM 34.5956 -113.0022 71° East 551 634 41,000  Level Albuquerque Center
Sun 09:28:09 PM 34.6433 -112.8283 71° East 550 633 41,000  Level Albuquerque Center
Sun 09:29:11 PM 34.7006 -112.6197 71° East 549 632 41,000  Level Albuquerque Center
Sun 09:30:12 PM 34.7486 -112.4461 71° East 549 632 41,000  Level Albuquerque Center
Sun 09:31:13 PM 34.7950 -112.2722 72° East 548 631 41,000  Level Albuquerque Center
Sun 09:32:15 PM 34.8417 -112.0994 72° East 545 627 41,000  Level Albuquerque Center
Sun 09:33:16 PM 34.8886 -111.9267 72° East 544 626 41,000  Level Albuquerque Center
Sun 09:34:18 PM 34.9342 -111.7547 72° East 541 623 41,000  Level Albuquerque Center
Sun 09:35:19 PM 34.9869 -111.5567 72° East 539 620 41,000  Level Albuquerque Center
Sun 09:36:20 PM 35.0317 -111.3844 72° East 534 615 41,000  Level Albuquerque Center
Sun 09:37:21 PM 35.0778 -111.2106 72° East 536 617 41,000  Level Albuquerque Center
Sun 09:38:23 PM 35.1250 -111.0258 73° East 533 613 41,000  Level Albuquerque Center
Sun 09:39:24 PM 35.1675 -110.8603 73° East 532 612 41,000  Level Albuquerque Center
Sun 09:40:25 PM 35.2181 -110.6678 72° East 534 615 41,000  Level Albuquerque Center
Sun 09:41:27 PM 35.2606 -110.5006 73° East 536 617 41,000  Level Albuquerque Center
Sun 09:42:28 PM 35.3017 -110.3350 73° East 535 616 41,000  Level Albuquerque Center
Sun 09:43:29 PM 35.3681 -110.1483 66° East 536 617 41,000  Level Albuquerque Center
Sun 09:44:30 PM 35.4353 -109.9942 62° Northeast 536 617 41,000  Level Albuquerque Center
Sun 09:45:32 PM 35.5117 -109.8133 63° Northeast 535 616 41,000  Level Albuquerque Center
Sun 09:46:33 PM 35.5767 -109.6597 62° Northeast 533 613 41,000  Level Albuquerque Center
Sun 09:47:34 PM 35.6358 -109.5025 65° Northeast 530 610 41,000  Level Albuquerque Center
Sun 09:48:35 PM 35.6794 -109.3086 74° East 527 606 41,000  Level Albuquerque Center
Sun 09:49:37 PM 35.7172 -109.1431 74° East 527 606 41,000  Level Albuquerque Center
Sun 09:50:38 PM 35.7603 -108.9503 75° East 527 606 41,000  Level Albuquerque Center
Sun 09:51:39 PM 35.7972 -108.7872 74° East 525 604 41,000  Level Albuquerque Center
Sun 09:52:41 PM 35.8419 -108.5953 74° East 527 606 41,000  Level Albuquerque Center
Sun 09:53:42 PM 35.8792 -108.4289 75° East 529 609 41,000  Level Albuquerque Center
Sun 09:54:43 PM 35.9167 -108.2631 74° East 528 608 41,000  Level Albuquerque Center
Sun 09:55:44 PM 35.9586 -108.0692 75° East 527 606 41,000  Level Albuquerque Center
Sun 09:56:45 PM 35.9953 -107.9022 75° East 527 606 41,000  Level Albuquerque Center
Sun 09:57:47 PM 36.0378 -107.7069 75° East 527 606 41,000  Level Albuquerque Center
Sun 09:58:48 PM 36.0733 -107.5406 75° East 526 605 41,000  Level Albuquerque Center
Sun 09:59:49 PM 36.1094 -107.3736 75° East 525 604 41,000  Level Albuquerque Center
Sun 10:00:51 PM 36.1494 -107.1792 76° East 524 603 41,000  Level Albuquerque Center
Sun 10:01:52 PM 36.1856 -107.0111 75° East 527 606 41,000  Level Albuquerque Center
Sun 10:02:53 PM 36.2264 -106.8158 75° East 526 605 41,000  Level Albuquerque Center
Sun 10:03:55 PM 36.2622 -106.6467 75° East 529 609 41,000  Level Albuquerque Center
Sun 10:04:56 PM 36.2972 -106.4722 76° East 526 605 41,000  Level Albuquerque Center
Sun 10:05:57 PM 36.3328 -106.2939 76° East 528 608 41,000  Level Albuquerque Center
Sun 10:06:59 PM 36.3697 -106.1158 76° East 530 610 41,000  Level Albuquerque Center
Sun 10:08:00 PM 36.4044 -105.9378 76° East 530 610 41,000  Level Albuquerque Center
Sun 10:09:01 PM 36.4386 -105.7617 76° East 525 604 41,000  Level Albuquerque Center
Sun 10:10:02 PM 36.4731 -105.5869 76° East 522 601 41,000  Level Albuquerque Center
Sun 10:11:04 PM 36.5119 -105.3881 76° East 513 590 41,000  Level Albuquerque Center
Sun 10:12:05 PM 36.5456 -105.2108 77° East 517 595 41,000  Level Albuquerque Center
Sun 10:13:06 PM 36.5789 -105.0372 77° East 514 592 41,000  Level Albuquerque Center
Sun 10:14:08 PM 36.6119 -104.8614 77° East 515 593 41,000  Level Albuquerque Center
Sun 10:15:09 PM 36.6450 -104.6875 77° East 513 590 41,000  Level Albuquerque Center
Sun 10:16:10 PM 36.6794 -104.5039 77° East 510 587 41,000  Level Albuquerque Center
Sun 10:17:12 PM 36.7092 -104.3408 77° East 509 586 41,000  Level Albuquerque Center
Sun 10:18:13 PM 36.7403 -104.1775 77° East 508 585 41,000  Level Albuquerque Center
Sun 10:19:14 PM 36.7744 -103.9869 77° East 507 583 41,000  Level Albuquerque Center
Sun 10:20:16 PM 36.8039 -103.8219 77° East 509 586 41,000  Level Albuquerque Center
Sun 10:21:17 PM 36.8378 -103.6303 77° East 510 587 41,000  Level Albuquerque Center
Sun 10:22:18 PM 36.8672 -103.4625 78° East 515 593 41,000  Level Albuquerque Center
Sun 10:23:20 PM 36.8969 -103.2953 77° East 517 595 41,000  Level Albuquerque Center
Sun 10:24:21 PM 36.9306 -103.1003 78° East 517 595 41,000  Level Albuquerque Center
Sun 10:25:22 PM 36.9589 -102.9328 78° East 516 594 41,000  Level Albuquerque Center
Sun 10:26:23 PM 36.9936 -102.7364 77° East 519 597 41,000  Level Albuquerque Center
Sun 10:27:24 PM 37.0217 -102.5681 78° East 519 597 41,000  Level Albuquerque Center
Sun 10:28:26 PM 37.0511 -102.3844 79° East 518 596 41,000  Level Albuquerque Center
Sun 10:29:27 PM 37.0878 -102.2203 74° East 514 592 41,000  Level Albuquerque Center
Sun 10:30:28 PM 37.1433 -102.0325 70° East 514 592 41,000  Level Albuquerque Center
Sun 10:31:21 PM 37.1825 -101.8981 70° East 515 593 41,000  Level Kansas City Center
Sun 10:32:24 PM 37.2356 -101.7089 71° East 515 593 41,000  Level Kansas City Center
Sun 10:33:24 PM 37.2803 -101.5478 71° East 514 592 41,000  Level Kansas City Center
Sun 10:34:24 PM 37.3253 -101.3878 70° East 511 588 41,000  Level Kansas City Center
Sun 10:35:27 PM 37.3775 -101.2003 71° East 511 588 41,000  Level Kansas City Center
Sun 10:36:28 PM 37.4208 -101.0397 71° East 511 588 41,000  Level Kansas City Center
Sun 10:37:29 PM 37.4708 -100.8517 71° East 514 592 41,000  Level Kansas City Center
Sun 10:38:32 PM 37.5161 -100.6914 70° East 518 596 41,000  Level Kansas City Center
Sun 10:39:31 PM 37.5600 -100.5319 71° East 515 593 41,000  Level Kansas City Center
Sun 10:40:33 PM 37.6106 -100.3422 71° East 512 589 41,000  Level Kansas City Center
Sun 10:41:33 PM 37.6542 -100.1814 71° East 511 588 41,000  Level Kansas City Center
Sun 10:42:35 PM 37.7039 -99.9914 72° East 511 588 41,000  Level Kansas City Center
Sun 10:43:35 PM 37.7461 -99.8306 72° East 508 585 41,000  Level Kansas City Center
Sun 10:44:37 PM 37.7961 -99.6408 72° East 509 586 41,000  Level Kansas City Center
Sun 10:45:37 PM 37.8381 -99.4783 72° East 509 586 41,000  Level Kansas City Center
Sun 10:46:36 PM 37.8769 -99.3239 72° East 510 587 41,000  Level Kansas City Center
Sun 10:47:37 PM 37.9217 -99.1533 72° East 509 586 41,000  Level Kansas City Center
Sun 10:48:41 PM 37.9647 -98.9811 72° East 512 589 41,000  Level Kansas City Center
Sun 10:49:41 PM 38.0083 -98.8094 72° East 512 589 41,000  Level Kansas City Center
Sun 10:50:43 PM 38.0611 -98.6025 72° East 512 589 41,000  Level Kansas City Center
Sun 10:51:44 PM 38.1064 -98.4292 72° East 515 593 41,000  Level Kansas City Center
Sun 10:52:45 PM 38.1489 -98.2569 73° East 510 587 41,000  Level Kansas City Center
Sun 10:53:45 PM 38.1922 -98.0811 73° East 513 590 41,000  Level Kansas City Center
Sun 10:54:45 PM 38.2336 -97.9069 73° East 509 586 41,000  Level Kansas City Center
Sun 10:55:48 PM 38.2753 -97.7325 73° East 511 588 41,000  Level Kansas City Center
Sun 10:56:47 PM 38.3169 -97.5592 73° East 509 586 41,000  Level Kansas City Center
Sun 10:57:50 PM 38.3583 -97.3861 73° East 509 586 41,000 -194 Level Kansas City Center
Sun 10:58:51 PM 38.3989 -97.2142 73° East 508 585 40,600 -793 Descending Kansas City Center
Sun 10:59:51 PM 38.4389 -97.0422 73° East 504 580 39,400 -1,171 Descending Kansas City Center
Sun 11:00:54 PM 38.4800 -96.8683 73° East 511 588 38,200 -1,220 Descending Kansas City Center
Sun 11:01:54 PM 38.5225 -96.6808 74° East 504 580 36,900 -1,736 Descending Kansas City Center
Sun 11:02:55 PM 38.5611 -96.5150 73° East 507 583 34,700 -2,361 Descending Kansas City Center
Sun 11:03:56 PM 38.5997 -96.3433 74° East 523 602 32,100 -2,900 Descending Kansas City Center
Sun 11:04:55 PM 38.6469 -96.1378 74° East 541 623 28,900 -2,950 Descending Kansas City Center
Sun 11:05:56 PM 38.6858 -95.9625 74° East 538 619 26,200 -2,585 Descending Kansas City Center
Sun 11:06:58 PM 38.7219 -95.7972 74° East 515 593 23,600 -2,634 Descending Kansas City Center
Sun 11:07:59 PM 38.7636 -95.6142 74° East 485 558 20,800 -2,488 Descending Kansas City Center
Sun 11:09:01 PM 38.7969 -95.4661 74° East 459 528 18,500 -2,410 Descending Kansas City Center
Sun 11:10:01 PM 38.8725 -95.3244 56° Northeast 440 506 15,900 -2,479 Descending Kansas City Center
Sun 11:11:02 PM 38.9458 -95.2208 48° Northeast 412 474 13,500 -2,146 Descending Kansas City Center
Sun 11:12:04 PM 38.9831 -95.1064 67° East 369 425 11,500 -1,650 Descending Kansas City Center
Sun 11:13:02 PM 39.0161 -94.9869 70° East 313 360 10,200 -1,664 Descending Kansas City Center
Sun 11:14:03 PM 39.0539 -94.9042 60° Northeast 286 329 8,200 -1,672 Descending Kansas City Center
Sun 11:15:04 PM 39.1047 -94.8175 53° Northeast 272 313 6,800 -1,426 Descending Kansas City Center
Sun 11:16:05 PM 39.1414 -94.7472 56° Northeast 252 290 5,300 -1,525 Descending Kansas City Center
Sun 11:17:06 PM 39.1731 -94.6775 60° Northeast 238 274 3,700 -1,548 Descending Kansas City Center
Sun 11:18:09 PM 39.1869 -94.6081 76° East 171 197 2,100 -1,161 Descending Kansas City Center
Sun 11:19:10 PM 39.1617 -94.5819 141° Southeast 127 146 1,300 -541 Descending Kansas City Center
Sun 11:20:11 PM 39.1289 -94.5936 195° South 123 142 1,000 -295 Descending Kansas City Center

Login

Don't have an account? Register now (free) for customized features, flight alerts, and more!